Time;durP1;ratioP1;P1;durP2;ratioP2;P2;SDS_P1;SDS_P2;PMS_P1;PMS_P2;Temp;Humidity;BMP_temperature;BMP_pressure;BME280_temperature;BME280_humidity;BME280_pressure;Samples;Min_cycle;Max_cycle;Signal;HPM_P1;HPM_P2
2023/08/07 00:02:00;;;;;;;6.20;4.20;;;;;;;15.80;100.00;99910.39;108766;1256;59540;-73
2023/08/07 00:04:28;;;;;;;6.10;4.70;;;;;;;15.85;100.00;99902.86;108047;1255;74397;-73
2023/08/07 00:06:55;;;;;;;6.60;4.90;;;;;;;15.88;100.00;99906.05;107307;1255;70075;-71
2023/08/07 00:09:21;;;;;;;7.30;4.40;;;;;;;15.89;100.00;99909.98;107546;1255;71497;-74
2023/08/07 00:11:49;;;;;;;7.10;4.60;;;;;;;15.95;100.00;99907.60;107374;1255;61108;-74
2023/08/07 00:14:15;;;;;;;6.10;4.00;;;;;;;15.99;100.00;99911.02;107085;1257;59763;-75
2023/08/07 00:16:42;;;;;;;5.10;4.00;;;;;;;16.02;100.00;99916.63;107269;1255;73769;-72
2023/08/07 00:19:09;;;;;;;6.50;3.90;;;;;;;16.04;100.00;99915.57;107172;1258;70468;-77
2023/08/07 00:21:37;;;;;;;7.70;4.40;;;;;;;16.03;100.00;99915.45;107499;1255;71695;-72
2023/08/07 00:24:04;;;;;;;9.30;4.80;;;;;;;16.01;100.00;99910.02;107235;1256;61215;-73
2023/08/07 00:26:32;;;;;;;6.40;4.00;;;;;;;15.99;100.00;99906.05;108414;1255;59488;-78
2023/08/07 00:28:59;;;;;;;8.30;4.70;;;;;;;15.95;100.00;99906.48;107089;1255;74645;-73
2023/08/07 00:31:25;;;;;;;7.30;5.00;;;;;;;15.92;100.00;99907.65;106708;1263;71923;-73
2023/08/07 00:33:54;;;;;;;7.70;5.00;;;;;;;15.89;100.00;99911.48;107316;1255;71491;-72
2023/08/07 00:36:21;;;;;;;8.50;4.60;;;;;;;15.86;100.00;99919.01;106994;1260;61289;-73
2023/08/07 00:38:47;;;;;;;7.50;4.60;;;;;;;15.86;100.00;99914.12;107354;1260;60412;-74
2023/08/07 00:41:19;;;;;;;9.90;4.80;;;;;;;15.83;100.00;99920.34;107287;1255;73745;-74
2023/08/07 00:43:45;;;;;;;7.80;5.10;;;;;;;15.81;100.00;99918.60;107566;1255;71969;-73
2023/08/07 00:46:12;;;;;;;8.10;5.60;;;;;;;15.79;100.00;99917.76;107073;1258;72814;-73
2023/08/07 00:48:39;;;;;;;9.20;5.40;;;;;;;15.76;100.00;99916.61;107457;1256;59252;-74
2023/08/07 00:51:07;;;;;;;6.30;5.40;;;;;;;15.74;100.00;99921.95;107966;1255;59447;-75
2023/08/07 00:53:38;;;;;;;8.90;5.80;;;;;;;15.70;100.00;99920.48;107027;1258;73516;-73
2023/08/07 00:56:05;;;;;;;6.90;5.20;;;;;;;15.68;100.00;99919.20;107470;1255;70037;-74
2023/08/07 00:58:33;;;;;;;7.30;5.00;;;;;;;15.63;100.00;99926.59;107397;1255;71546;-74
2023/08/07 01:01:00;;;;;;;6.60;4.40;;;;;;;15.61;100.00;99927.20;107397;1255;63316;-72
2023/08/07 01:03:26;;;;;;;8.20;5.00;;;;;;;15.59;100.00;99923.48;107302;1255;61130;-74
2023/08/07 01:05:54;;;;;;;6.90;5.00;;;;;;;15.59;100.00;99925.64;107469;1257;73893;-75
2023/08/07 01:08:21;;;;;;;7.10;4.80;;;;;;;15.58;100.00;99929.30;107070;1255;71372;-76
2023/08/07 01:11:06;;;;;;;7.90;5.40;;;;;;;15.58;100.00;99920.70;107248;1255;71661;-74
2023/08/07 01:13:44;;;;;;;8.00;6.10;;;;;;;15.57;100.00;99928.27;107336;1260;61365;-74
2023/08/07 01:16:19;;;;;;;6.40;5.30;;;;;;;15.56;100.00;99935.29;107379;1255;61193;-73
2023/08/07 01:18:47;;;;;;;6.90;4.70;;;;;;;15.54;100.00;99928.08;107160;1255;73408;-73
2023/08/07 01:21:20;;;;;;;5.70;4.70;;;;;;;15.51;100.00;99924.09;107428;1258;70504;-75
2023/08/07 01:23:47;;;;;;;7.60;5.00;;;;;;;15.45;100.00;99923.13;107187;1255;72545;-74
2023/08/07 01:26:19;;;;;;;6.50;5.20;;;;;;;15.39;100.00;99913.02;107256;1257;61710;-72
2023/08/07 01:28:57;;;;;;;6.90;5.70;;;;;;;15.32;100.00;99916.19;107175;1260;61232;-75
2023/08/07 01:31:25;;;;;;;10.20;6.70;;;;;;;15.25;100.00;99906.54;106908;1256;73463;-76
2023/08/07 01:34:04;;;;;;;7.70;6.30;;;;;;;15.22;100.00;99904.98;107230;1255;70094;-75
2023/08/07 01:36:32;;;;;;;9.90;6.40;;;;;;;15.21;100.00;99903.63;107288;1255;71588;-73
2023/08/07 01:39:00;;;;;;;10.00;6.80;;;;;;;15.21;100.00;99906.75;107256;1256;62016;-74
2023/08/07 01:41:28;;;;;;;8.90;6.80;;;;;;;15.20;100.00;99905.23;107417;1255;61176;-76
2023/08/07 01:43:55;;;;;;;8.90;6.40;;;;;;;15.19;100.00;99908.38;107286;1255;74674;-74
2023/08/07 01:46:21;;;;;;;8.60;6.80;;;;;;;15.18;100.00;99907.11;107043;1255;71217;-73
2023/08/07 01:48:48;;;;;;;10.00;7.40;;;;;;;15.17;100.00;99910.02;107300;1255;74036;-75
2023/08/07 01:51:15;;;;;;;10.60;7.40;;;;;;;15.15;100.00;99910.94;107069;1255;60848;-75
2023/08/07 01:53:42;;;;;;;10.40;6.70;;;;;;;15.14;100.00;99914.52;107194;1255;61244;-74
2023/08/07 01:56:09;;;;;;;8.60;6.20;;;;;;;15.12;100.00;99911.63;107429;1255;75054;-73
2023/08/07 01:58:36;;;;;;;10.60;7.40;;;;;;;15.09;100.00;99907.89;107621;1255;61321;-74
2023/08/07 02:01:03;;;;;;;7.90;6.30;;;;;;;15.07;100.00;99906.25;107570;1260;73251;-75
2023/08/07 02:03:30;;;;;;;8.60;7.10;;;;;;;15.03;100.00;99903.42;107268;1260;61081;-74
2023/08/07 02:05:57;;;;;;;8.50;6.20;;;;;;;15.01;100.00;99904.81;107405;1257;61279;-73
2023/08/07 02:08:24;;;;;;;8.40;6.00;;;;;;;14.98;100.00;99903.29;107168;1255;73990;-75
2023/08/07 02:10:51;;;;;;;10.30;6.70;;;;;;;14.95;100.00;99907.74;107193;1256;72547;-78
2023/08/07 02:13:18;;;;;;;9.40;6.80;;;;;;;14.95;100.00;99903.85;106914;1258;73470;-76
2023/08/07 02:15:45;;;;;;;10.00;7.00;;;;;;;14.93;100.00;99904.85;107302;1256;61351;-78
2023/08/07 02:18:11;;;;;;;8.60;6.80;;;;;;;14.92;100.00;99903.55;107076;1255;61177;-77
2023/08/07 02:20:38;;;;;;;11.10;7.30;;;;;;;14.92;100.00;99906.06;107407;1258;73538;-73
2023/08/07 02:23:05;;;;;;;9.60;7.10;;;;;;;14.94;100.00;99907.44;107196;1255;71210;-74
2023/08/07 02:25:32;;;;;;;10.00;7.10;;;;;;;14.94;100.00;99904.97;107235;1256;71134;-76
2023/08/07 02:27:58;;;;;;;8.90;6.00;;;;;;;14.94;100.00;99906.91;107560;1255;62111;-73
2023/08/07 02:30:25;;;;;;;7.30;5.50;;;;;;;14.90;100.00;99911.33;107283;1255;61236;-74
2023/08/07 02:32:52;;;;;;;9.10;4.90;;;;;;;14.89;100.00;99911.35;107261;1255;73549;-74
2023/08/07 02:35:18;;;;;;;7.10;5.00;;;;;;;14.87;100.00;99910.08;107280;1258;69612;-76
2023/08/07 02:37:45;;;;;;;6.80;4.80;;;;;;;14.83;100.00;99907.06;107142;1255;72448;-74
2023/08/07 02:40:15;;;;;;;7.20;4.60;;;;;;;14.81;100.00;99914.48;107184;1255;61339;-72
2023/08/07 02:42:42;;;;;;;6.90;4.80;;;;;;;14.80;100.00;99911.25;107119;1255;61598;-73
2023/08/07 02:45:09;;;;;;;7.90;5.10;;;;;;;14.78;100.00;99909.74;107261;1255;73549;-73
2023/08/07 02:47:35;;;;;;;7.00;4.50;;;;;;;14.75;100.00;99916.48;107101;1256;70437;-71
2023/08/07 02:50:02;;;;;;;6.50;4.40;;;;;;;14.71;100.00;99912.73;107304;1255;73281;-74
2023/08/07 02:52:29;;;;;;;7.10;4.10;;;;;;;14.71;100.00;99910.92;107269;1255;62998;-74
2023/08/07 02:54:56;;;;;;;6.80;4.30;;;;;;;14.69;100.00;99913.66;107649;1255;61316;-72
2023/08/07 02:57:24;;;;;;;7.40;4.40;;;;;;;14.69;100.00;99913.33;106986;1255;73834;-74
2023/08/07 02:59:51;;;;;;;6.80;4.30;;;;;;;14.67;100.00;99910.34;107430;1255;70541;-75
2023/08/07 03:02:18;;;;;;;7.70;4.50;;;;;;;14.67;100.00;99922.71;108486;1255;72090;-76
2023/08/07 03:04:45;;;;;;;10.30;4.00;;;;;;;14.64;100.00;99921.35;108567;1255;61108;-73
2023/08/07 03:07:12;;;;;;;6.30;3.70;;;;;;;14.64;100.00;99919.91;106968;1256;61159;-70
2023/08/07 03:09:38;;;;;;;7.10;4.50;;;;;;;14.66;100.00;99914.52;107254;1255;74746;-74
2023/08/07 03:12:05;;;;;;;5.90;3.90;;;;;;;14.67;100.00;99920.70;108366;1255;69092;-73
2023/08/07 03:14:32;;;;;;;7.30;3.90;;;;;;;14.67;100.00;99920.70;107261;1255;71264;-73
2023/08/07 03:16:59;;;;;;;6.40;3.80;;;;;;;14.71;100.00;99922.46;107256;1255;61339;-73
2023/08/07 03:19:26;;;;;;;6.00;3.90;;;;;;;14.75;100.00;99922.27;106840;1255;61303;-72
2023/08/07 03:21:53;;;;;;;6.80;4.60;;;;;;;14.79;100.00;99920.98;107443;1255;73051;-75
2023/08/07 03:24:20;;;;;;;6.70;4.70;;;;;;;14.81;100.00;99918.91;107102;1256;61150;-76
2023/08/07 03:26:47;;;;;;;9.00;5.30;;;;;;;14.83;100.00;99924.73;107511;1255;71403;-75
2023/08/07 03:29:14;;;;;;;6.90;4.60;;;;;;;14.85;100.00;99926.67;107260;1255;60894;-75
2023/08/07 03:31:40;;;;;;;6.70;5.30;;;;;;;14.84;100.00;99931.41;107649;1255;61252;-72
2023/08/07 03:34:07;;;;;;;7.80;4.90;;;;;;;14.86;100.00;99932.45;107390;1255;73471;-75
2023/08/07 03:36:35;;;;;;;7.70;5.40;;;;;;;14.87;100.00;99926.41;107311;1255;71739;-72
2023/08/07 03:39:02;;;;;;;8.00;5.30;;;;;;;14.90;100.00;99928.14;107037;1257;71311;-74
2023/08/07 03:41:29;;;;;;;9.40;5.00;;;;;;;14.90;100.00;99933.48;107536;1256;61375;-73
2023/08/07 03:43:56;;;;;;;8.70;5.50;;;;;;;14.89;100.00;99931.23;107363;1255;61367;-72
2023/08/07 03:46:23;;;;;;;10.40;5.20;;;;;;;14.91;100.00;99935.13;107270;1255;75789;-70
2023/08/07 03:48:50;;;;;;;7.40;4.90;;;;;;;14.89;100.00;99944.63;107180;1256;70719;-72
2023/08/07 03:51:17;;;;;;;9.90;5.00;;;;;;;14.91;100.00;99944.25;107094;1255;71595;-71
2023/08/07 03:53:44;;;;;;;8.80;5.50;;;;;;;14.91;100.00;99943.95;107315;1255;61138;-73
2023/08/07 03:56:11;;;;;;;7.70;5.40;;;;;;;14.93;100.00;99945.55;106951;1255;62795;-72
2023/08/07 03:58:37;;;;;;;8.70;5.30;;;;;;;14.96;100.00;99935.98;107257;1257;73660;-73
2023/08/07 04:01:04;;;;;;;8.40;5.30;;;;;;;14.97;100.00;99934.45;107071;1255;70165;-74
2023/08/07 04:03:31;;;;;;;9.00;5.40;;;;;;;14.98;100.00;99931.11;107590;1256;72642;-73
2023/08/07 04:06:01;;;;;;;7.40;5.10;;;;;;;14.97;100.00;99936.58;107782;1255;61948;-74
2023/08/07 04:08:28;;;;;;;8.90;5.70;;;;;;;14.97;100.00;99936.49;106944;1255;61222;-76
2023/08/07 04:11:03;;;;;;;8.20;4.90;;;;;;;15.00;100.00;99937.11;107001;1256;73361;-74
2023/08/07 04:13:30;;;;;;;7.80;5.30;;;;;;;15.01;100.00;99940.60;106770;1257;71055;-74
2023/08/07 04:15:57;;;;;;;8.30;5.90;;;;;;;15.03;100.00;99941.46;107052;1255;72439;-75
2023/08/07 04:18:24;;;;;;;8.40;5.40;;;;;;;15.05;100.00;99942.81;106733;1255;61259;-72
2023/08/07 04:20:55;;;;;;;9.50;5.60;;;;;;;15.07;100.00;99938.48;107014;1255;61145;-75
2023/08/07 04:23:22;;;;;;;8.50;5.60;;;;;;;15.09;100.00;99939.98;107153;1260;74500;-72
2023/08/07 04:25:53;;;;;;;8.40;5.20;;;;;;;15.07;100.00;99947.27;107403;1255;70620;-75
2023/08/07 04:28:20;;;;;;;7.00;5.00;;;;;;;15.08;100.00;99957.48;106793;1261;73383;-73
2023/08/07 04:30:53;;;;;;;10.20;5.50;;;;;;;15.11;100.00;99946.65;107471;1256;61274;-73
2023/08/07 04:33:20;;;;;;;10.40;5.60;;;;;;;15.12;100.00;99951.48;106472;1260;62184;-75
2023/08/07 04:35:47;;;;;;;8.30;4.80;;;;;;;15.15;100.00;99956.34;106408;1261;74742;-71
2023/08/07 04:38:15;;;;;;;6.80;4.80;;;;;;;15.14;100.00;99967.30;106612;1255;71257;-73
2023/08/07 04:40:49;;;;;;;8.50;4.90;;;;;;;15.14;100.00;99959.83;106384;1255;72405;-73
2023/08/07 04:43:18;;;;;;;9.00;5.40;;;;;;;15.16;100.00;99956.42;106180;1260;62179;-73
2023/08/07 04:45:45;;;;;;;7.10;4.70;;;;;;;15.17;100.00;99958.05;106337;1255;61429;-73
2023/08/07 04:48:13;;;;;;;7.00;5.00;;;;;;;15.19;100.00;99961.56;106196;1260;73227;-74
2023/08/07 04:50:41;;;;;;;7.80;4.50;;;;;;;15.21;100.00;99960.84;106052;1260;497714;-73
2023/08/07 04:53:08;;;;;;;8.60;4.80;;;;;;;15.23;100.00;99965.38;105992;1255;70609;-74
2023/08/07 04:55:35;;;;;;;7.60;4.90;;;;;;;15.25;100.00;99966.93;106882;1256;60540;-74
2023/08/07 04:58:02;;;;;;;8.20;5.20;;;;;;;15.25;100.00;99971.61;106125;1256;62258;-73
2023/08/07 05:00:29;;;;;;;8.00;4.50;;;;;;;15.26;100.00;99974.02;106295;1256;75589;-73
2023/08/07 05:02:56;;;;;;;7.20;4.60;;;;;;;15.27;100.00;99976.56;106207;1259;70826;-73
2023/08/07 05:05:23;;;;;;;10.60;5.00;;;;;;;15.27;100.00;99977.84;106346;1261;71145;-77
2023/08/07 05:07:51;;;;;;;9.40;4.90;;;;;;;15.30;100.00;99978.04;106302;1255;61223;-71
2023/08/07 05:10:18;;;;;;;6.60;4.10;;;;;;;15.31;100.00;99981.60;106563;1255;62137;-71
2023/08/07 05:12:44;;;;;;;7.50;4.60;;;;;;;15.31;100.00;99980.36;106413;1260;74401;-75
2023/08/07 05:15:11;;;;;;;7.20;4.40;;;;;;;15.33;100.00;99982.45;106510;1257;70354;-74
2023/08/07 05:17:38;;;;;;;6.80;4.30;;;;;;;15.36;100.00;99989.81;106724;1255;72801;-75
2023/08/07 05:20:06;;;;;;;8.30;4.50;;;;;;;15.40;100.00;99977.72;106178;1255;61357;-75
2023/08/07 05:22:32;;;;;;;6.20;4.50;;;;;;;15.45;100.00;99984.60;106124;1261;62624;-72
2023/08/07 05:24:59;;;;;;;5.80;4.00;;;;;;;15.50;100.00;99977.76;106297;1256;72959;-73
2023/08/07 05:27:26;;;;;;;8.40;4.60;;;;;;;15.53;100.00;99982.05;106416;1256;69810;-72
2023/08/07 05:29:53;;;;;;;5.90;4.10;;;;;;;15.51;100.00;99987.66;106693;1260;71402;-73
2023/08/07 05:32:20;;;;;;;7.80;4.30;;;;;;;15.50;100.00;99980.27;106613;1255;62577;-73
2023/08/07 05:34:46;;;;;;;7.30;4.10;;;;;;;15.47;100.00;99982.36;106496;1256;61261;-72
2023/08/07 05:37:13;;;;;;;7.20;4.70;;;;;;;15.46;100.00;99985.75;106132;1255;73704;-73
2023/08/07 05:39:40;;;;;;;7.50;4.30;;;;;;;15.46;100.00;99986.02;106392;1255;70258;-74
2023/08/07 05:42:09;;;;;;;6.20;3.90;;;;;;;15.44;100.00;99991.05;106346;1255;71329;-71
2023/08/07 05:44:36;;;;;;;8.00;4.00;;;;;;;15.45;100.00;99992.52;106334;1255;61846;-72
2023/08/07 05:47:03;;;;;;;6.30;3.90;;;;;;;15.51;100.00;99992.30;106042;1261;61151;-74
2023/08/07 05:49:30;;;;;;;9.50;4.50;;;;;;;15.55;100.00;99992.47;106926;1261;74721;-74
2023/08/07 05:51:56;;;;;;;5.00;3.40;;;;;;;15.61;100.00;99997.82;106634;1258;69967;-73
2023/08/07 05:54:24;;;;;;;4.30;3.40;;;;;;;15.60;100.00;100002.72;106399;1255;72763;-72
2023/08/07 05:56:51;;;;;;;5.40;3.50;;;;;;;15.64;100.00;100000.52;106409;1255;61353;-73
2023/08/07 05:59:18;;;;;;;5.30;3.50;;;;;;;15.67;100.00;100004.08;106350;1257;61239;-73
2023/08/07 06:01:44;;;;;;;5.40;3.30;;;;;;;15.70;100.00;100005.92;106706;1256;73555;-74
2023/08/07 06:04:11;;;;;;;5.40;3.00;;;;;;;15.72;100.00;100007.87;106319;1260;69352;-71
2023/08/07 06:06:39;;;;;;;4.70;3.10;;;;;;;15.71;100.00;100011.81;106418;1257;71500;-72
2023/08/07 06:09:06;;;;;;;4.50;2.90;;;;;;;15.70;100.00;100012.52;108139;1255;61798;-73
2023/08/07 06:11:33;;;;;;;4.40;3.00;;;;;;;15.69;100.00;100010.88;107261;1256;61363;-71
2023/08/07 06:14:00;;;;;;;6.60;3.10;;;;;;;15.69;100.00;100009.92;107802;1255;75915;-72
2023/08/07 06:16:27;;;;;;;5.10;3.00;;;;;;;15.75;100.00;100008.08;108046;1256;71225;-72
2023/08/07 06:18:54;;;;;;;5.70;3.20;;;;;;;15.77;100.00;100013.85;107061;1256;73514;-71
2023/08/07 06:21:21;;;;;;;6.70;2.70;;;;;;;15.78;100.00;100013.88;106746;1255;61279;-72
2023/08/07 06:23:48;;;;;;;5.30;2.80;;;;;;;15.78;100.00;100013.14;106522;1256;61292;-73
2023/08/07 06:26:15;;;;;;;4.80;2.60;;;;;;;15.81;100.00;100016.55;106299;1255;73538;-71
2023/08/07 06:28:42;;;;;;;6.60;2.70;;;;;;;15.86;100.00;100033.52;106314;1255;69707;-70
2023/08/07 06:31:11;;;;;;;5.10;2.30;;;;;;;15.89;100.00;100022.96;106578;1259;71404;-71
2023/08/07 06:33:37;;;;;;;4.80;2.70;;;;;;;15.91;100.00;100022.09;106469;1255;61624;-71
2023/08/07 06:36:05;;;;;;;4.90;2.60;;;;;;;15.93;100.00;100021.65;106624;1260;61166;-73
2023/08/07 06:38:32;;;;;;;5.10;2.50;;;;;;;15.92;100.00;100025.91;108013;1255;74695;-74
2023/08/07 06:40:58;;;;;;;5.50;2.80;;;;;;;15.95;100.00;100020.85;107565;1255;70402;-73
2023/08/07 06:43:25;;;;;;;3.90;2.20;;;;;;;15.99;100.00;100017.96;108493;1255;71446;-75
2023/08/07 06:45:54;;;;;;;5.30;2.20;;;;;;;16.05;100.00;100021.34;106950;1256;62530;-74
2023/08/07 06:48:21;;;;;;;3.60;2.10;;;;;;;16.13;100.00;100022.21;106754;1255;59265;-73
2023/08/07 06:50:51;;;;;;;4.60;2.40;;;;;;;16.23;100.00;100020.25;106315;1255;73605;-75
2023/08/07 06:53:19;;;;;;;2.80;1.80;;;;;;;16.35;100.00;100023.41;106493;1255;69846;-72
2023/08/07 06:55:46;;;;;;;3.90;1.80;;;;;;;16.39;98.76;100036.86;106486;1255;73136;-74
2023/08/07 06:58:13;;;;;;;4.50;1.90;;;;;;;16.46;98.41;100030.69;106504;1255;61394;-73
2023/08/07 07:00:40;;;;;;;3.20;1.60;;;;;;;16.61;98.46;100026.55;106234;1260;61195;-73
2023/08/07 07:03:09;;;;;;;4.10;1.90;;;;;;;16.73;97.47;100031.28;106280;1261;73435;-71
2023/08/07 07:05:36;;;;;;;2.70;1.30;;;;;;;16.82;96.35;100034.25;106492;1256;71143;-72
2023/08/07 07:08:03;;;;;;;4.30;1.80;;;;;;;16.79;95.35;100030.98;106625;1255;72073;-72
2023/08/07 07:10:30;;;;;;;5.10;2.00;;;;;;;16.72;95.28;100039.02;106454;1255;61574;-72
2023/08/07 07:12:57;;;;;;;5.20;2.20;;;;;;;16.75;95.88;100036.30;106234;1257;61398;-73
2023/08/07 07:15:23;;;;;;;10.10;6.30;;;;;;;16.73;95.42;100050.03;106347;1260;73542;-77
2023/08/07 07:17:50;;;;;;;12.30;7.80;;;;;;;16.82;95.37;100042.86;107077;1255;69688;-76
2023/08/07 07:20:18;;;;;;;17.30;10.40;;;;;;;16.94;94.80;100044.81;106455;1258;72411;-75
2023/08/07 07:22:46;;;;;;;13.10;7.40;;;;;;;17.06;94.12;100047.77;106370;1255;61163;-74
2023/08/07 07:25:12;;;;;;;12.00;7.90;;;;;;;17.19;93.90;100043.38;106097;1263;61861;-73
2023/08/07 07:27:40;;;;;;;8.50;3.80;;;;;;;17.31;93.20;100042.73;106350;1256;73462;-75
2023/08/07 07:30:07;;;;;;;5.00;2.40;;;;;;;17.39;92.59;100046.51;106262;1255;71193;-77
2023/08/07 07:32:35;;;;;;;3.90;2.10;;;;;;;17.50;92.43;100048.31;106369;1256;71931;-75
2023/08/07 07:35:01;;;;;;;4.20;1.70;;;;;;;17.63;91.62;100043.77;106436;1260;61358;-74
2023/08/07 07:37:30;;;;;;;6.00;1.90;;;;;;;17.75;91.33;100048.27;106119;1256;61274;-74
2023/08/07 07:39:56;;;;;;;3.90;1.80;;;;;;;17.83;90.42;100052.98;106358;1256;74140;-78
2023/08/07 07:42:23;;;;;;;21.30;13.20;;;;;;;17.81;89.20;100050.67;106384;1260;70071;-75
2023/08/07 07:44:50;;;;;;;7.20;4.10;;;;;;;17.80;89.10;100050.40;106123;1255;70904;-74
2023/08/07 07:47:17;;;;;;;4.70;2.50;;;;;;;17.84;89.04;100056.79;106283;1258;62659;-75
2023/08/07 07:49:47;;;;;;;3.70;1.80;;;;;;;17.88;88.76;100055.36;106467;1256;61335;-77
2023/08/07 07:52:14;;;;;;;3.30;2.00;;;;;;;17.99;88.26;100051.63;106282;1255;73834;-72
2023/08/07 07:54:41;;;;;;;12.00;6.60;;;;;;;18.04;86.91;100063.21;106111;1261;70329;-73
2023/08/07 07:57:08;;;;;;;25.00;14.80;;;;;;;18.05;86.58;100056.43;106317;1258;72091;-73
2023/08/07 07:59:35;;;;;;;6.10;2.90;;;;;;;18.07;86.67;100056.70;106657;1255;63321;-71
2023/08/07 08:02:02;;;;;;;2.70;1.40;;;;;;;18.13;86.24;100059.38;106636;1255;61360;-74
2023/08/07 08:04:29;;;;;;;7.10;4.50;;;;;;;18.36;86.04;100059.77;106483;1255;73798;-74
2023/08/07 08:06:56;;;;;;;9.70;6.20;;;;;;;18.52;83.90;100064.36;106329;1260;71935;-74
2023/08/07 08:09:23;;;;;;;15.20;10.10;;;;;;;18.68;83.16;100066.00;106228;1258;72117;-74
2023/08/07 08:11:49;;;;;;;46.40;33.10;;;;;;;18.82;83.38;100064.34;106167;1262;62229;-77
2023/08/07 08:14:16;;;;;;;31.30;19.10;;;;;;;18.90;83.04;100069.83;106416;1257;61892;-73
2023/08/07 08:16:43;;;;;;;15.00;9.60;;;;;;;18.86;81.84;100077.72;106896;1256;73474;-71
2023/08/07 08:19:11;;;;;;;12.00;7.70;;;;;;;18.84;81.17;100084.94;108617;1255;69369;-77
2023/08/07 08:21:38;;;;;;;19.90;13.70;;;;;;;18.80;81.46;100080.37;108800;1255;73963;-74
2023/08/07 08:24:07;;;;;;;17.80;11.10;;;;;;;18.76;81.80;100077.17;108031;1255;62062;-75
2023/08/07 08:26:34;;;;;;;9.40;5.40;;;;;;;18.71;82.09;100077.02;107857;1256;61119;-72
2023/08/07 08:29:01;;;;;;;15.10;10.80;;;;;;;18.72;82.49;100073.64;106516;1255;75081;-72
2023/08/07 08:31:28;;;;;;;5.80;2.70;;;;;;;18.63;81.78;100085.92;106509;1255;70229;-73
2023/08/07 08:33:55;;;;;;;17.30;10.50;;;;;;;18.47;81.54;100077.58;106543;1257;73703;-72
2023/08/07 08:36:22;;;;;;;9.60;5.40;;;;;;;18.37;82.74;100075.21;106666;1255;61795;-71
2023/08/07 08:38:49;;;;;;;25.90;13.70;;;;;;;18.22;82.94;100085.45;106408;1256;61182;-72
2023/08/07 08:41:25;;;;;;;33.90;21.20;;;;;;;18.12;84.05;100078.85;106508;1260;74609;-72
2023/08/07 08:43:54;;;;;;;14.60;8.90;;;;;;;17.98;84.65;100088.23;106729;1260;69233;-71
2023/08/07 08:46:24;;;;;;;27.50;17.40;;;;;;;17.92;84.94;100088.61;106599;1255;71392;-71
2023/08/07 08:48:56;;;;;;;8.00;3.30;;;;;;;17.97;84.85;100111.88;106362;1255;61106;-70
2023/08/07 08:51:24;;;;;;;3.80;1.70;;;;;;;17.99;84.86;100103.07;106473;1255;61464;-72
2023/08/07 08:53:56;;;;;;;6.10;2.60;;;;;;;18.05;85.27;100104.40;106747;1255;73449;-73
2023/08/07 08:56:24;;;;;;;4.80;2.40;;;;;;;18.30;84.83;100107.00;106309;1256;69726;-73
2023/08/07 08:58:51;;;;;;;15.30;8.80;;;;;;;18.55;83.21;100095.34;106511;1261;70881;-73
2023/08/07 09:01:18;;;;;;;5.50;2.70;;;;;;;18.70;83.31;100099.31;106754;1256;62091;-73
2023/08/07 09:03:46;;;;;;;6.70;3.60;;;;;;;18.71;83.23;100114.31;106736;1258;61239;-74
2023/08/07 09:06:14;;;;;;;2.60;1.40;;;;;;;18.37;84.73;100138.73;106234;1258;74746;-71
2023/08/07 09:08:43;;;;;;;17.90;9.90;;;;;;;17.75;89.69;100152.95;106497;1256;71245;-74
2023/08/07 09:11:14;;;;;;;5.80;1.40;;;;;;;16.70;92.16;100142.09;106651;1256;71261;-79
2023/08/07 09:13:43;;;;;;;4.90;1.60;;;;;;;15.90;97.12;100139.34;106437;1258;61783;-81
2023/08/07 09:16:12;;;;;;;5.70;1.70;;;;;;;15.53;100.00;100141.81;106810;1260;61289;-74
2023/08/07 09:18:40;;;;;;;6.30;2.00;;;;;;;15.35;100.00;100139.69;106762;1256;73384;-76
2023/08/07 09:21:06;;;;;;;4.30;1.70;;;;;;;15.22;100.00;100147.61;106567;1260;72516;-79
2023/08/07 09:23:33;;;;;;;6.70;1.80;;;;;;;15.05;100.00;100149.11;106871;1257;72750;-75
2023/08/07 09:26:02;;;;;;;5.80;2.10;;;;;;;15.02;100.00;100142.19;106792;1260;61997;-76
2023/08/07 09:28:30;;;;;;;6.70;1.90;;;;;;;15.09;100.00;100137.98;106520;1261;61676;-77
2023/08/07 09:30:56;;;;;;;5.90;2.30;;;;;;;15.21;100.00;100142.32;106416;1260;73878;-73
2023/08/07 09:33:27;;;;;;;7.70;2.40;;;;;;;15.33;100.00;100145.95;106784;1255;69797;-71
2023/08/07 09:36:03;;;;;;;7.40;2.10;;;;;;;15.49;100.00;100145.10;106512;1256;72367;-74
2023/08/07 09:38:34;;;;;;;4.50;1.90;;;;;;;15.57;100.00;100142.52;106790;1258;62372;-71
2023/08/07 09:41:03;;;;;;;7.70;2.30;;;;;;;15.65;100.00;100143.50;106677;1261;61258;-72
2023/08/07 09:43:35;;;;;;;7.70;2.30;;;;;;;15.76;100.00;100143.99;108123;1255;73178;-74
2023/08/07 09:46:08;;;;;;;6.30;1.90;;;;;;;15.92;100.00;100141.21;106530;1260;71196;-74
2023/08/07 09:48:43;;;;;;;5.60;2.00;;;;;;;16.11;100.00;100145.80;106813;1259;72470;-74
2023/08/07 09:51:10;;;;;;;5.30;1.90;;;;;;;16.40;100.00;100138.61;106404;1260;61694;-71
2023/08/07 09:53:37;;;;;;;5.30;1.80;;;;;;;16.67;100.00;100147.48;106386;1255;62330;-73
2023/08/07 09:56:04;;;;;;;7.50;2.10;;;;;;;16.87;100.00;100142.39;106142;1261;73399;-72
2023/08/07 09:58:31;;;;;;;5.30;2.10;;;;;;;17.08;98.45;100146.55;106211;1258;72462;-73
2023/08/07 10:01:09;;;;;;;6.30;2.00;;;;;;;17.29;98.30;100143.66;106390;1255;72886;-71
2023/08/07 10:03:36;;;;;;;5.40;1.90;;;;;;;17.35;96.62;100149.58;106352;1256;61212;-71
2023/08/07 10:06:04;;;;;;;4.90;1.90;;;;;;;17.23;96.53;100153.90;106534;1256;61302;-76
2023/08/07 10:08:32;;;;;;;8.60;2.00;;;;;;;17.10;97.38;100155.69;107084;1256;74723;-73
2023/08/07 10:10:59;;;;;;;5.60;1.60;;;;;;;16.93;97.92;100162.83;106407;1255;70165;-73
2023/08/07 10:13:27;;;;;;;6.30;1.90;;;;;;;16.79;98.13;100162.77;107205;1255;70463;-72
2023/08/07 10:16:06;;;;;;;4.20;1.20;;;;;;;16.61;97.68;100163.77;107233;1262;61194;-72
2023/08/07 10:18:35;;;;;;;2.70;1.20;;;;;;;16.56;97.69;100175.50;108623;1255;60816;-72
2023/08/07 10:21:04;;;;;;;4.50;1.70;;;;;;;16.45;97.68;100172.71;106930;1255;73436;-73
2023/08/07 10:23:35;;;;;;;4.00;1.20;;;;;;;16.42;97.70;100179.64;106840;1260;71043;-75
2023/08/07 10:26:06;;;;;;;8.40;1.60;;;;;;;16.49;98.15;100166.48;106559;1262;72137;-72
2023/08/07 10:28:37;;;;;;;4.60;1.40;;;;;;;16.69;97.67;100167.56;106462;1258;61854;-71
2023/08/07 10:31:06;;;;;;;5.30;1.60;;;;;;;16.95;97.02;100174.63;106303;1255;61321;-73
2023/08/07 10:33:34;;;;;;;4.70;1.70;;;;;;;17.20;97.34;100168.05;106466;1261;74744;-70
2023/08/07 10:36:08;;;;;;;4.80;1.80;;;;;;;17.32;95.60;100171.89;106476;1263;70355;-72
2023/08/07 10:38:36;;;;;;;5.80;1.80;;;;;;;17.26;94.21;100172.16;107041;1258;70725;-70
2023/08/07 10:41:07;;;;;;;4.60;2.10;;;;;;;17.10;94.09;100190.32;106421;1257;61138;-73
2023/08/07 10:43:39;;;;;;;5.10;1.50;;;;;;;17.07;95.87;100185.05;106530;1261;61682;-70
2023/08/07 10:46:09;;;;;;;5.10;1.80;;;;;;;17.09;96.66;100180.71;106773;1262;73913;-71
2023/08/07 10:48:43;;;;;;;8.10;1.40;;;;;;;17.14;97.37;100178.78;106587;1261;70916;-73
2023/08/07 10:51:15;;;;;;;7.40;1.70;;;;;;;17.19;92.78;100193.05;106440;1260;73342;-71
2023/08/07 10:53:46;;;;;;;5.90;1.60;;;;;;;17.32;90.85;100191.23;106489;1258;61186;-72
2023/08/07 10:56:35;;;;;;;7.30;2.00;;;;;;;17.40;90.53;100184.02;106466;1257;61630;-70
2023/08/07 10:59:10;;;;;;;5.40;1.30;;;;;;;17.35;89.79;100183.58;106409;1257;73654;-69
2023/08/07 11:01:43;;;;;;;5.70;1.60;;;;;;;17.31;90.06;100176.30;106488;1260;70900;-71
2023/08/07 11:04:14;;;;;;;5.20;1.90;;;;;;;17.23;90.24;100174.98;106755;1257;71491;-70
2023/08/07 11:06:46;;;;;;;7.10;1.70;;;;;;;17.15;88.97;100184.06;106771;1257;61374;-70
2023/08/07 11:09:13;;;;;;;8.70;1.80;;;;;;;16.97;88.75;100186.18;107041;1260;61338;-73
2023/08/07 11:11:41;;;;;;;6.60;1.50;;;;;;;16.86;89.97;100181.58;106697;1257;75553;-71
2023/08/07 11:14:13;;;;;;;5.90;1.90;;;;;;;16.79;91.39;100174.60;106714;1257;72274;-73
2023/08/07 11:16:41;;;;;;;5.50;1.80;;;;;;;16.74;92.14;100173.52;106462;1260;71874;-72
2023/08/07 11:19:08;;;;;;;5.90;1.90;;;;;;;16.65;92.71;100184.27;106606;1260;61251;-71